地図

経路データ

SID SEASON NUMBER BASIN SUBBASIN NAME ISO_TIME NATURE LAT LON WMO_WIND WMO_PRES WMO_AGENCY TRACK_TYPE DIST2LAND LANDFALL IFLAG USA_AGENCY USA_ATCF_ID USA_LAT USA_LON USA_RECORD USA_STATUS USA_WIND USA_PRES USA_SSHS USA_R34_NE USA_R34_SE USA_R34_SW USA_R34_NW USA_R50_NE USA_R50_SE USA_R50_SW USA_R50_NW USA_R64_NE USA_R64_SE USA_R64_SW USA_R64_NW USA_POCI USA_ROCI USA_RMW USA_EYE TOKYO_LAT TOKYO_LON TOKYO_GRADE TOKYO_WIND TOKYO_PRES TOKYO_R50_DIR TOKYO_R50_LONG TOKYO_R50_SHORT TOKYO_R30_DIR TOKYO_R30_LONG TOKYO_R30_SHORT TOKYO_LAND CMA_LAT CMA_LON CMA_CAT CMA_WIND CMA_PRES HKO_LAT HKO_LON HKO_CAT HKO_WIND HKO_PRES NEWDELHI_LAT NEWDELHI_LON NEWDELHI_GRADE NEWDELHI_WIND NEWDELHI_PRES NEWDELHI_CI NEWDELHI_DP NEWDELHI_POCI REUNION_LAT REUNION_LON REUNION_TYPE REUNION_WIND REUNION_PRES REUNION_TNUM REUNION_CI REUNION_RMW REUNION_R34_NE REUNION_R34_SE REUNION_R34_SW REUNION_R34_NW REUNION_R50_NE REUNION_R50_SE REUNION_R50_SW REUNION_R50_NW REUNION_R64_NE REUNION_R64_SE REUNION_R64_SW REUNION_R64_NW BOM_LAT BOM_LON BOM_TYPE BOM_WIND BOM_PRES BOM_TNUM BOM_CI BOM_RMW BOM_R34_NE BOM_R34_SE BOM_R34_SW BOM_R34_NW BOM_R50_NE BOM_R50_SE BOM_R50_SW BOM_R50_NW BOM_R64_NE BOM_R64_SE BOM_R64_SW BOM_R64_NW BOM_ROCI BOM_POCI BOM_EYE BOM_POS_METHOD BOM_PRES_METHOD NADI_LAT NADI_LON NADI_CAT NADI_WIND NADI_PRES WELLINGTON_LAT WELLINGTON_LON WELLINGTON_WIND WELLINGTON_PRES DS824_LAT DS824_LON DS824_STAGE DS824_WIND DS824_PRES TD9636_LAT TD9636_LON TD9636_STAGE TD9636_WIND TD9636_PRES TD9635_LAT TD9635_LON TD9635_WIND TD9635_PRES TD9635_ROCI NEUMANN_LAT NEUMANN_LON NEUMANN_CLASS NEUMANN_WIND NEUMANN_PRES MLC_LAT MLC_LON MLC_CLASS MLC_WIND MLC_PRES USA_GUST BOM_GUST BOM_GUST_PER REUNION_GUST REUNION_GUST_PER USA_SEAHGT USA_SEARAD_NE USA_SEARAD_SE USA_SEARAD_SW USA_SEARAD_NW STORM_SPEED STORM_DIR
1947281N35317 1947 78 NA NA NOT_NAMED 1947-10-08 00:00:00 TS 34.7000 -42.8000 40 hurdat_atl main 1583 1569 O_____________ hurdat_atl AL081947 34.7000 -42.8000 TS 40 0 5 33
1947281N35317 1947 78 NA NA NOT_NAMED 1947-10-08 03:00:00 TS 34.9000 -42.6501 main 1569 1559 P_____________ AL081947 34.9000 -42.6501 TS 42 0 5 32
1947281N35317 1947 78 NA NA NOT_NAMED 1947-10-08 06:00:00 TS 35.1000 -42.5000 45 hurdat_atl main 1559 1545 O_____________ hurdat_atl AL081947 35.1000 -42.5000 TS 45 0 5 32
1947281N35317 1947 78 NA NA NOT_NAMED 1947-10-08 09:00:00 TS 35.3000 -42.3499 main 1550 1536 P_____________ AL081947 35.3000 -42.3499 TS 47 0 5 31
1947281N35317 1947 78 NA NA NOT_NAMED 1947-10-08 12:00:00 TS 35.5000 -42.2000 50 hurdat_atl main 1536 1522 O_____________ hurdat_atl AL081947 35.5000 -42.2000 TS 50 0 5 32
1947281N35317 1947 78 NA NA NOT_NAMED 1947-10-08 15:00:00 TS 35.7000 -42.0425 main 1527 1514 P_____________ AL081947 35.7000 -42.0425 TS 50 0 5 31
1947281N35317 1947 78 NA NA NOT_NAMED 1947-10-08 18:00:00 TS 35.9000 -41.9000 50 hurdat_atl main 1514 1501 O_____________ hurdat_atl AL081947 35.9000 -41.9000 TS 50 0 4 27
1947281N35317 1947 78 NA NA NOT_NAMED 1947-10-08 21:00:00 TS 36.1000 -41.7924 main 1501 1488 P_____________ AL081947 36.1000 -41.7924 TS 50 0 4 22
1947281N35317 1947 78 NA NA NOT_NAMED 1947-10-09 00:00:00 TS 36.3000 -41.7000 50 hurdat_atl main 1488 1475 O_____________ hurdat_atl AL081947 36.3000 -41.7000 TS 50 0 4 19
1947281N35317 1947 78 NA NA NOT_NAMED 1947-10-09 03:00:00 TS 36.5074 -41.6223 main 1475 1463 P_____________ AL081947 36.5074 -41.6223 TS 50 0 4 22
1947281N35317 1947 78 NA NA NOT_NAMED 1947-10-09 06:00:00 TS 36.7000 -41.5000 50 hurdat_atl main 1463 1460 O_____________ hurdat_atl AL081947 36.7000 -41.5000 TS 50 0 4 37
1947281N35317 1947 78 NA NA NOT_NAMED 1947-10-09 09:00:00 TS 36.8499 -41.2948 main 1465 1456 P_____________ AL081947 36.8499 -41.2948 TS 50 0 5 53
1947281N35317 1947 78 NA NA NOT_NAMED 1947-10-09 12:00:00 TS 37.0000 -41.0000 50 hurdat_atl main 1465 1462 O_____________ hurdat_atl AL081947 37.0000 -41.0000 TS 50 0 6 56
1947281N35317 1947 78 NA NA NOT_NAMED 1947-10-09 15:00:00 TS 37.1999 -40.6376 main 1470 1468 P_____________ AL081947 37.1999 -40.6376 TS 50 0 8 58
1947281N35317 1947 78 NA NA NOT_NAMED 1947-10-09 18:00:00 TS 37.4000 -40.2000 50 hurdat_atl main 1477 1477 O_____________ hurdat_atl AL081947 37.4000 -40.2000 TS 50 0 8 64
1947281N35317 1947 78 NA NA NOT_NAMED 1947-10-09 21:00:00 TS 37.5573 -39.7297 main 1490 1490 P_____________ AL081947 37.5573 -39.7297 TS 50 0 8 69
1947281N35317 1947 78 NA NA NOT_NAMED 1947-10-10 00:00:00 TS 37.7000 -39.2000 50 hurdat_atl main 1513 1513 O_____________ hurdat_atl AL081947 37.7000 -39.2000 TS 50 0 9 72
1947281N35317 1947 78 NA NA NOT_NAMED 1947-10-10 03:00:00 TS 37.8499 -38.6148 main 1543 1535 P_____________ AL081947 37.8499 -38.6148 TS 50 0 10 72
1947281N35317 1947 78 NA NA NOT_NAMED 1947-10-10 06:00:00 TS 38.0000 -38.0000 50 hurdat_atl main 1565 1565 O_____________ hurdat_atl AL081947 38.0000 -38.0000 TS 50 0 10 73
1947281N35317 1947 78 NA NA NOT_NAMED 1947-10-10 09:00:00 TS 38.1496 -37.4072 main 1596 1588 P_____________ AL081947 38.1496 -37.4072 TS 50 0 10 72
1947281N35317 1947 78 NA NA NOT_NAMED 1947-10-10 12:00:00 TS 38.3000 -36.8000 50 hurdat_atl main 1620 1620 O_____________ hurdat_atl AL081947 38.3000 -36.8000 TS 50 0 10 74
1947281N35317 1947 78 NA NA NOT_NAMED 1947-10-10 15:00:00 TS 38.4345 -36.1717 main 1652 1652 P_____________ AL081947 38.4345 -36.1717 TS 50 0 11 74
1947281N35317 1947 78 NA NA NOT_NAMED 1947-10-10 18:00:00 TS 38.6000 -35.5000 50 hurdat_atl main 1685 1685 O_____________ hurdat_atl AL081947 38.6000 -35.5000 TS 50 0 12 70
1947281N35317 1947 78 NA NA NOT_NAMED 1947-10-10 21:00:00 TS 38.8311 -34.7691 main 1720 1720 P_____________ AL081947 38.8311 -34.7691 TS 47 0 13 67
1947281N35317 1947 78 NA NA NOT_NAMED 1947-10-11 00:00:00 ET 39.1000 -34.0000 45 hurdat_atl main 1756 O_____________ hurdat_atl AL081947 39.1000 -34.0000 EX 45 -4 13 66

IBTrACS Databaseについて

本データベースは、米国NOAAが公開する1842年以降の世界の熱帯低気圧のベストトラックデータアーカイブInternational Best Track Archive for Climate Stewardship (IBTrACS)を、ウェブで閲覧しやすい形式に変換したものです。

最終更新日:2021-12-01